sensor_id;sensor_type;location;lat;lon;timestamp;pressure;altitude;pressure_sealevel;temperature;humidity
79791;BME280;69278;52.220;5.172;2023-11-21T00:01:03;101152.13;;;8.61;90.11
79791;BME280;69278;52.220;5.172;2023-11-21T00:03:31;101156.53;;;8.60;90.46
79791;BME280;69278;52.220;5.172;2023-11-21T00:05:57;101150.44;;;8.60;90.15
79791;BME280;69278;52.220;5.172;2023-11-21T00:08:24;101154.88;;;8.59;89.85
79791;BME280;69278;52.220;5.172;2023-11-21T00:10:50;101160.94;;;8.60;89.70
79791;BME280;69278;52.220;5.172;2023-11-21T00:13:17;101171.78;;;8.55;89.67
79791;BME280;69278;52.220;5.172;2023-11-21T00:15:44;101171.69;;;8.57;89.97
79791;BME280;69278;52.220;5.172;2023-11-21T00:18:11;101167.53;;;8.54;89.97
79791;BME280;69278;52.220;5.172;2023-11-21T00:20:37;101160.81;;;8.50;90.03
79791;BME280;69278;52.220;5.172;2023-11-21T00:23:04;101171.31;;;8.50;90.07
79791;BME280;69278;52.220;5.172;2023-11-21T00:25:30;101162.13;;;8.45;89.84
79791;BME280;69278;52.220;5.172;2023-11-21T00:27:58;101172.38;;;8.48;90.32
79791;BME280;69278;52.220;5.172;2023-11-21T00:30:25;101172.63;;;8.45;89.82
79791;BME280;69278;52.220;5.172;2023-11-21T00:32:51;101177.88;;;8.45;90.10
79791;BME280;69278;52.220;5.172;2023-11-21T00:35:18;101160.44;;;8.44;90.02
79791;BME280;69278;52.220;5.172;2023-11-21T00:37:44;101171.06;;;8.42;90.31
79791;BME280;69278;52.220;5.172;2023-11-21T00:40:12;101165.09;;;8.40;90.11
79791;BME280;69278;52.220;5.172;2023-11-21T00:42:39;101172.00;;;8.41;90.01
79791;BME280;69278;52.220;5.172;2023-11-21T00:45:06;101174.63;;;8.41;90.37
79791;BME280;69278;52.220;5.172;2023-11-21T00:47:33;101174.53;;;8.43;90.37
79791;BME280;69278;52.220;5.172;2023-11-21T00:50:00;101166.03;;;8.39;90.37
79791;BME280;69278;52.220;5.172;2023-11-21T00:52:26;101179.78;;;8.43;90.44
79791;BME280;69278;52.220;5.172;2023-11-21T00:54:53;101191.94;;;8.44;90.65
79791;BME280;69278;52.220;5.172;2023-11-21T00:57:20;101174.53;;;8.43;90.92
79791;BME280;69278;52.220;5.172;2023-11-21T00:59:46;101183.00;;;8.46;91.03
79791;BME280;69278;52.220;5.172;2023-11-21T01:02:13;101180.16;;;8.49;91.35
79791;BME280;69278;52.220;5.172;2023-11-21T01:04:39;101176.91;;;8.46;90.93
79791;BME280;69278;52.220;5.172;2023-11-21T01:07:06;101190.16;;;8.55;91.34
79791;BME280;69278;52.220;5.172;2023-11-21T01:09:33;101190.16;;;8.55;90.91
79791;BME280;69278;52.220;5.172;2023-11-21T01:11:59;101201.72;;;8.53;91.30
79791;BME280;69278;52.220;5.172;2023-11-21T01:14:27;101201.63;;;8.54;91.47
79791;BME280;69278;52.220;5.172;2023-11-21T01:16:53;101149.28;;;8.29;91.34
79791;BME280;69278;52.220;5.172;2023-11-21T01:19:20;101192.91;;;8.54;91.71
79791;BME280;69278;52.220;5.172;2023-11-21T01:21:47;101198.66;;;8.59;91.43
79791;BME280;69278;52.220;5.172;2023-11-21T01:24:13;101204.63;;;8.61;91.40
79791;BME280;69278;52.220;5.172;2023-11-21T01:26:40;101207.13;;;8.62;91.59
79791;BME280;69278;52.220;5.172;2023-11-21T01:29:06;101208.59;;;8.66;91.70
79791;BME280;69278;52.220;5.172;2023-11-21T01:31:33;101202.63;;;8.64;91.55
79791;BME280;69278;52.220;5.172;2023-11-21T01:33:59;101198.09;;;8.66;91.71
79791;BME280;69278;52.220;5.172;2023-11-21T01:36:30;101184.69;;;8.58;91.70
79791;BME280;69278;52.220;5.172;2023-11-21T01:38:59;101217.69;;;8.74;91.45
79791;BME280;69278;52.220;5.172;2023-11-21T01:41:28;101207.75;;;8.66;91.60
79791;BME280;69278;52.220;5.172;2023-11-21T01:43:55;101157.22;;;8.40;91.50
79791;BME280;69278;52.220;5.172;2023-11-21T01:46:22;101211.94;;;8.68;91.33
79791;BME280;69278;52.220;5.172;2023-11-21T01:48:50;101226.06;;;8.79;91.43
79791;BME280;69278;52.220;5.172;2023-11-21T01:51:17;101226.91;;;8.79;91.81
79791;BME280;69278;52.220;5.172;2023-11-21T01:53:45;101203.34;;;8.66;91.63
79791;BME280;69278;52.220;5.172;2023-11-21T01:56:13;101235.59;;;8.80;91.57
79791;BME280;69278;52.220;5.172;2023-11-21T01:58:40;101235.59;;;8.80;91.91
79791;BME280;69278;52.220;5.172;2023-11-21T02:01:07;101229.63;;;8.78;92.09
79791;BME280;69278;52.220;5.172;2023-11-21T02:03:33;101069.19;;;7.78;91.68
79791;BME280;69278;52.220;5.172;2023-11-21T02:06:00;101248.63;;;8.81;92.36
79791;BME280;69278;52.220;5.172;2023-11-21T02:08:26;101246.59;;;8.85;92.05
79791;BME280;69278;52.220;5.172;2023-11-21T02:10:53;101249.00;;;8.88;92.29
79791;BME280;69278;52.220;5.172;2023-11-21T02:13:19;101234.16;;;8.76;92.28
79791;BME280;69278;52.220;5.172;2023-11-21T02:15:46;101249.00;;;8.88;92.05
79791;BME280;69278;52.220;5.172;2023-11-21T02:18:13;101227.84;;;8.78;91.89
79791;BME280;69278;52.220;5.172;2023-11-21T02:20:41;101256.28;;;8.95;92.10
79791;BME280;69278;52.220;5.172;2023-11-21T02:23:09;101253.53;;;8.97;92.04
79791;BME280;69278;52.220;5.172;2023-11-21T02:25:35;101238.50;;;8.88;91.94
79791;BME280;69278;52.220;5.172;2023-11-21T02:28:04;101269.06;;;9.00;91.90
79791;BME280;69278;52.220;5.172;2023-11-21T02:30:30;101263.81;;;9.00;91.97
79791;BME280;69278;52.220;5.172;2023-11-21T02:33:01;101256.06;;;8.98;92.05
79791;BME280;69278;52.220;5.172;2023-11-21T02:35:29;101260.25;;;9.01;91.93
79791;BME280;69278;52.220;5.172;2023-11-21T02:37:58;101261.69;;;9.05;91.94
79791;BME280;69278;52.220;5.172;2023-11-21T02:40:24;101267.78;;;9.05;92.08
79791;BME280;69278;52.220;5.172;2023-11-21T02:42:53;101269.69;;;9.03;92.13
79791;BME280;69278;52.220;5.172;2023-11-21T02:45:20;101272.78;;;9.08;92.13
79791;BME280;69278;52.220;5.172;2023-11-21T02:47:48;101270.16;;;9.08;92.17
79791;BME280;69278;52.220;5.172;2023-11-21T02:50:16;101274.47;;;9.09;92.47
79791;BME280;69278;52.220;5.172;2023-11-21T02:52:45;101270.91;;;9.10;92.33
79791;BME280;69278;52.220;5.172;2023-11-21T02:55:12;101256.22;;;9.08;91.99
79791;BME280;69278;52.220;5.172;2023-11-21T02:57:38;101265.75;;;9.09;92.08
79791;BME280;69278;52.220;5.172;2023-11-21T03:00:05;101269.22;;;9.09;92.14
79791;BME280;69278;52.220;5.172;2023-11-21T03:02:34;101265.75;;;9.09;91.90
79791;BME280;69278;52.220;5.172;2023-11-21T03:05:06;101258.22;;;9.04;92.08
79791;BME280;69278;52.220;5.172;2023-11-21T03:07:37;101271.00;;;9.09;92.11
79791;BME280;69278;52.220;5.172;2023-11-21T03:10:04;101243.03;;;8.97;91.86
79791;BME280;69278;52.220;5.172;2023-11-21T03:12:30;101265.03;;;9.07;92.14
79791;BME280;69278;52.220;5.172;2023-11-21T03:14:57;101265.03;;;9.07;91.98
79791;BME280;69278;52.220;5.172;2023-11-21T03:17:24;101266.31;;;9.01;92.00
79791;BME280;69278;52.220;5.172;2023-11-21T03:19:51;101272.06;;;9.06;92.12
79791;BME280;69278;52.220;5.172;2023-11-21T03:22:18;101278.28;;;9.05;91.99
79791;BME280;69278;52.220;5.172;2023-11-21T03:24:45;101278.16;;;9.07;92.08
79791;BME280;69278;52.220;5.172;2023-11-21T03:27:12;101265.59;;;8.99;92.24
79791;BME280;69278;52.220;5.172;2023-11-21T03:29:38;101274.47;;;9.09;92.45
79791;BME280;69278;52.220;5.172;2023-11-21T03:32:06;101272.06;;;9.06;92.15
79791;BME280;69278;52.220;5.172;2023-11-21T03:34:33;101273.63;;;9.09;91.97
79791;BME280;69278;52.220;5.172;2023-11-21T03:37:00;101277.56;;;9.03;92.21
79791;BME280;69278;52.220;5.172;2023-11-21T03:39:26;101296.34;;;9.10;92.01
79791;BME280;69278;52.220;5.172;2023-11-21T03:41:55;101284.97;;;9.09;92.01
79791;BME280;69278;52.220;5.172;2023-11-21T03:44:22;101279.13;;;9.06;92.07
79791;BME280;69278;52.220;5.172;2023-11-21T03:46:48;101286.66;;;9.10;92.20
79791;BME280;69278;52.220;5.172;2023-11-21T03:49:15;101292.72;;;9.11;92.18
79791;BME280;69278;52.220;5.172;2023-11-21T03:51:42;101295.38;;;9.11;91.90
79791;BME280;69278;52.220;5.172;2023-11-21T03:54:08;101301.59;;;9.10;92.32
79791;BME280;69278;52.220;5.172;2023-11-21T03:56:35;101306.00;;;9.09;92.27
79791;BME280;69278;52.220;5.172;2023-11-21T03:59:02;101306.13;;;9.08;92.37
79791;BME280;69278;52.220;5.172;2023-11-21T04:01:29;101293.44;;;9.02;92.45
79791;BME280;69278;52.220;5.172;2023-11-21T04:03:56;101312.31;;;9.07;92.16
79791;BME280;69278;52.220;5.172;2023-11-21T04:06:23;101315.78;;;9.07;92.48
79791;BME280;69278;52.220;5.172;2023-11-21T04:08:50;101311.94;;;9.00;92.77
79791;BME280;69278;52.220;5.172;2023-11-21T04:11:16;101333.34;;;9.07;92.92
79791;BME280;69278;52.220;5.172;2023-11-21T04:13:43;101334.06;;;9.09;92.93
79791;BME280;69278;52.220;5.172;2023-11-21T04:16:10;101330.59;;;9.08;92.92
79791;BME280;69278;52.220;5.172;2023-11-21T04:18:36;101322.69;;;9.08;93.36
79791;BME280;69278;52.220;5.172;2023-11-21T04:21:06;101332.75;;;9.14;93.22
79791;BME280;69278;52.220;5.172;2023-11-21T04:23:34;101340.44;;;9.17;92.96
79791;BME280;69278;52.220;5.172;2023-11-21T04:26:01;101347.25;;;9.20;93.25
79791;BME280;69278;52.220;5.172;2023-11-21T04:28:29;101347.13;;;9.21;93.28
79791;BME280;69278;52.220;5.172;2023-11-21T04:30:55;101361.81;;;9.24;93.32
79791;BME280;69278;52.220;5.172;2023-11-21T04:33:22;101345.56;;;9.19;93.29
79791;BME280;69278;52.220;5.172;2023-11-21T04:35:49;101365.38;;;9.23;93.52
79791;BME280;69278;52.220;5.172;2023-11-21T04:38:15;101360.97;;;9.23;93.34
79791;BME280;69278;52.220;5.172;2023-11-21T04:40:42;101355.72;;;9.23;93.30
79791;BME280;69278;52.220;5.172;2023-11-21T04:43:08;101363.38;;;9.26;93.60
79791;BME280;69278;52.220;5.172;2023-11-21T04:45:35;101367.69;;;9.27;93.39
79791;BME280;69278;52.220;5.172;2023-11-21T04:48:01;101370.19;;;9.29;93.43
79791;BME280;69278;52.220;5.172;2023-11-21T04:50:28;101348.69;;;9.24;93.62
79791;BME280;69278;52.220;5.172;2023-11-21T04:52:55;101363.16;;;9.29;93.70
79791;BME280;69278;52.220;5.172;2023-11-21T04:55:21;101359.56;;;9.30;93.61
79791;BME280;69278;52.220;5.172;2023-11-21T04:57:48;101351.31;;;9.24;93.78
79791;BME280;69278;52.220;5.172;2023-11-21T05:00:15;101363.03;;;9.31;93.87
79791;BME280;69278;52.220;5.172;2023-11-21T05:02:42;101367.22;;;9.33;93.83
79791;BME280;69278;52.220;5.172;2023-11-21T05:05:11;101361.81;;;9.24;93.90
79791;BME280;69278;52.220;5.172;2023-11-21T05:07:39;101352.72;;;9.17;94.04
79791;BME280;69278;52.220;5.172;2023-11-21T05:10:06;101370.41;;;9.26;94.22
79791;BME280;69278;52.220;5.172;2023-11-21T05:12:39;101377.72;;;9.33;94.38
79791;BME280;69278;52.220;5.172;2023-11-21T05:15:07;101378.34;;;9.37;94.46
79791;BME280;69278;52.220;5.172;2023-11-21T05:17:37;101386.13;;;9.39;94.20
79791;BME280;69278;52.220;5.172;2023-11-21T05:20:05;101374.97;;;9.35;94.35
79791;BME280;69278;52.220;5.172;2023-11-21T05:22:35;101387.81;;;9.40;94.68
79791;BME280;69278;52.220;5.172;2023-11-21T05:25:02;101392.00;;;9.42;94.39
79791;BME280;69278;52.220;5.172;2023-11-21T05:27:30;101399.75;;;9.44;94.55
79791;BME280;69278;52.220;5.172;2023-11-21T05:30:04;101403.94;;;9.46;94.56
79791;BME280;69278;52.220;5.172;2023-11-21T05:32:41;101404.78;;;9.47;94.75
79791;BME280;69278;52.220;5.172;2023-11-21T05:35:10;101406.44;;;9.48;95.10
79791;BME280;69278;52.220;5.172;2023-11-21T05:37:46;101408.00;;;9.50;94.89
79791;BME280;69278;52.220;5.172;2023-11-21T05:40:14;101401.53;;;9.43;94.99
79791;BME280;69278;52.220;5.172;2023-11-21T05:42:40;101416.72;;;9.51;94.85
79791;BME280;69278;52.220;5.172;2023-11-21T05:45:07;101418.44;;;9.52;95.12
79791;BME280;69278;52.220;5.172;2023-11-21T05:47:45;101424.50;;;9.52;95.34
79791;BME280;69278;52.220;5.172;2023-11-21T05:50:15;101426.19;;;9.53;95.27
79791;BME280;69278;52.220;5.172;2023-11-21T05:52:43;101424.75;;;9.49;95.32
79791;BME280;69278;52.220;5.172;2023-11-21T05:55:11;101429.66;;;9.54;95.36
79791;BME280;69278;52.220;5.172;2023-11-21T05:57:40;101439.19;;;9.55;95.35
79791;BME280;69278;52.220;5.172;2023-11-21T06:00:12;101439.91;;;9.57;95.55
79791;BME280;69278;52.220;5.172;2023-11-21T06:02:51;101424.97;;;9.46;95.69
79791;BME280;69278;52.220;5.172;2023-11-21T06:05:21;101433.84;;;9.56;96.40
79791;BME280;69278;52.220;5.172;2023-11-21T06:07:50;101431.56;;;9.52;96.08
79791;BME280;69278;52.220;5.172;2023-11-21T06:10:20;101452.25;;;9.56;95.70
79791;BME280;69278;52.220;5.172;2023-11-21T06:12:47;101458.31;;;9.57;95.53
79791;BME280;69278;52.220;5.172;2023-11-21T06:15:15;101440.13;;;9.43;96.12
79791;BME280;69278;52.220;5.172;2023-11-21T06:17:42;101473.88;;;9.60;96.45
79791;BME280;69278;52.220;5.172;2023-11-21T06:20:11;101471.03;;;9.63;96.70
79791;BME280;69278;52.220;5.172;2023-11-21T06:22:42;101467.34;;;9.65;96.24
79791;BME280;69278;52.220;5.172;2023-11-21T06:25:09;101455.59;;;9.58;96.25
79791;BME280;69278;52.220;5.172;2023-11-21T06:27:39;101469.63;;;9.70;96.11
79791;BME280;69278;52.220;5.172;2023-11-21T06:30:07;101431.66;;;9.50;95.58
79791;BME280;69278;52.220;5.172;2023-11-21T06:32:36;101468.31;;;9.75;96.57
79791;BME280;69278;52.220;5.172;2023-11-21T06:35:03;101456.81;;;9.65;96.39
79791;BME280;69278;52.220;5.172;2023-11-21T06:37:31;101473.94;;;9.82;96.68
79791;BME280;69278;52.220;5.172;2023-11-21T06:39:59;101467.34;;;9.76;96.25
79791;BME280;69278;52.220;5.172;2023-11-21T06:42:26;101481.41;;;9.88;96.24
79791;BME280;69278;52.220;5.172;2023-11-21T06:44:53;101474.78;;;9.82;96.54
79791;BME280;69278;52.220;5.172;2023-11-21T06:47:23;101486.31;;;9.92;96.57
79791;BME280;69278;52.220;5.172;2023-11-21T06:49:53;101479.84;;;9.85;96.33
79791;BME280;69278;52.220;5.172;2023-11-21T06:52:20;101488.94;;;9.92;96.98
79791;BME280;69278;52.220;5.172;2023-11-21T06:54:47;101493.94;;;9.95;98.05
79791;BME280;69278;52.220;5.172;2023-11-21T06:57:14;101502.31;;;10.00;97.78
79791;BME280;69278;52.220;5.172;2023-11-21T06:59:40;101512.53;;;10.05;96.88
79791;BME280;69278;52.220;5.172;2023-11-21T07:02:07;101513.25;;;10.07;97.42
79791;BME280;69278;52.220;5.172;2023-11-21T07:04:33;101506.16;;;10.08;97.23
79791;BME280;69278;52.220;5.172;2023-11-21T07:07:00;101519.84;;;10.13;97.79
79791;BME280;69278;52.220;5.172;2023-11-21T07:09:27;101529.22;;;10.17;97.50
79791;BME280;69278;52.220;5.172;2023-11-21T07:11:53;101521.19;;;10.51;97.71
79791;BME280;69278;52.220;5.172;2023-11-21T07:14:21;101531.28;;;10.80;98.13
79791;BME280;69278;52.220;5.172;2023-11-21T07:16:47;101523.56;;;11.10;98.20
79791;BME280;69278;52.220;5.172;2023-11-21T07:19:14;101488.72;;;11.06;97.68
79791;BME280;69278;52.220;5.172;2023-11-21T07:21:41;101523.84;;;11.39;97.39
79791;BME280;69278;52.220;5.172;2023-11-21T07:24:08;101527.38;;;11.60;96.37
79791;BME280;69278;52.220;5.172;2023-11-21T07:26:35;101525.16;;;11.76;95.49
79791;BME280;69278;52.220;5.172;2023-11-21T07:29:02;101547.19;;;11.86;95.05
79791;BME280;69278;52.220;5.172;2023-11-21T07:31:29;101539.91;;;11.78;93.10
79791;BME280;69278;52.220;5.172;2023-11-21T07:33:56;101537.22;;;11.89;93.05
79791;BME280;69278;52.220;5.172;2023-11-21T07:36:25;101549.31;;;11.92;92.04
79791;BME280;69278;52.220;5.172;2023-11-21T07:38:52;101510.19;;;11.65;91.53
79791;BME280;69278;52.220;5.172;2023-11-21T07:41:18;101560.06;;;12.00;91.66
79791;BME280;69278;52.220;5.172;2023-11-21T07:43:56;101558.34;;;12.10;91.31
79791;BME280;69278;52.220;5.172;2023-11-21T07:46:23;101569.13;;;12.18;90.84
79791;BME280;69278;52.220;5.172;2023-11-21T07:48:50;101571.09;;;12.26;90.84
79791;BME280;69278;52.220;5.172;2023-11-21T07:51:19;101569.19;;;12.28;89.84
79791;BME280;69278;52.220;5.172;2023-11-21T07:53:45;101555.13;;;11.86;89.90
79791;BME280;69278;52.220;5.172;2023-11-21T07:56:12;101566.09;;;11.59;90.59
79791;BME280;69278;52.220;5.172;2023-11-21T07:58:39;101595.97;;;11.49;91.11
79791;BME280;69278;52.220;5.172;2023-11-21T08:01:06;101594.22;;;11.27;92.09
79791;BME280;69278;52.220;5.172;2023-11-21T08:03:33;101597.25;;;11.11;92.60
79791;BME280;69278;52.220;5.172;2023-11-21T08:06:00;101610.81;;;11.07;93.23
79791;BME280;69278;52.220;5.172;2023-11-21T08:08:26;101609.72;;;10.98;93.76
79791;BME280;69278;52.220;5.172;2023-11-21T08:10:54;101609.22;;;10.93;94.41
79791;BME280;69278;52.220;5.172;2023-11-21T08:13:24;101613.66;;;10.82;94.50
79791;BME280;69278;52.220;5.172;2023-11-21T08:15:55;101626.63;;;10.85;95.27
79791;BME280;69278;52.220;5.172;2023-11-21T08:18:23;101626.84;;;10.82;95.47
79791;BME280;69278;52.220;5.172;2023-11-21T08:20:49;101632.97;;;10.82;95.80
79791;BME280;69278;52.220;5.172;2023-11-21T08:23:16;101625.75;;;10.73;96.21
79791;BME280;69278;52.220;5.172;2023-11-21T08:25:45;101629.22;;;10.74;96.20
79791;BME280;69278;52.220;5.172;2023-11-21T08:28:12;101649.47;;;10.84;96.18
79791;BME280;69278;52.220;5.172;2023-11-21T08:30:40;101651.03;;;10.87;96.26
79791;BME280;69278;52.220;5.172;2023-11-21T08:33:08;101653.31;;;10.91;96.32
79791;BME280;69278;52.220;5.172;2023-11-21T08:35:35;101663.00;;;10.91;96.55
79791;BME280;69278;52.220;5.172;2023-11-21T08:38:03;101662.91;;;10.92;96.41
79791;BME280;69278;52.220;5.172;2023-11-21T08:40:30;101663.63;;;10.94;96.60
79791;BME280;69278;52.220;5.172;2023-11-21T08:42:56;101669.72;;;10.95;96.64
79791;BME280;69278;52.220;5.172;2023-11-21T08:45:25;101672.13;;;10.98;96.56
79791;BME280;69278;52.220;5.172;2023-11-21T08:47:54;101684.72;;;10.94;96.88
79791;BME280;69278;52.220;5.172;2023-11-21T08:50:21;101677.03;;;10.91;96.64
79791;BME280;69278;52.220;5.172;2023-11-21T08:52:48;101695.72;;;10.88;96.74
79791;BME280;69278;52.220;5.172;2023-11-21T08:55:14;101695.13;;;10.85;96.64
79791;BME280;69278;52.220;5.172;2023-11-21T08:57:43;101703.97;;;10.84;96.71
79791;BME280;69278;52.220;5.172;2023-11-21T09:00:10;101680.59;;;10.68;96.71
79791;BME280;69278;52.220;5.172;2023-11-21T09:02:43;101715.56;;;10.81;96.88
79791;BME280;69278;52.220;5.172;2023-11-21T09:05:11;101667.13;;;10.49;96.65
79791;BME280;69278;52.220;5.172;2023-11-21T09:07:39;101716.56;;;10.80;96.58
79791;BME280;69278;52.220;5.172;2023-11-21T09:10:08;101712.22;;;10.79;96.75
79791;BME280;69278;52.220;5.172;2023-11-21T09:12:37;101722.75;;;10.79;96.79
79791;BME280;69278;52.220;5.172;2023-11-21T09:15:07;101731.13;;;10.73;96.50
79791;BME280;69278;52.220;5.172;2023-11-21T09:17:34;101715.91;;;10.65;96.51
79791;BME280;69278;52.220;5.172;2023-11-21T09:20:02;101725.03;;;10.73;96.54
79791;BME280;69278;52.220;5.172;2023-11-21T09:22:32;101736.50;;;10.72;96.68
79791;BME280;69278;52.220;5.172;2023-11-21T09:24:58;101741.66;;;10.73;96.59
79791;BME280;69278;52.220;5.172;2023-11-21T09:27:25;101740.84;;;10.73;96.48
79791;BME280;69278;52.220;5.172;2023-11-21T09:29:52;101734.44;;;10.64;96.36
79791;BME280;69278;52.220;5.172;2023-11-21T09:32:20;101756.75;;;10.71;96.23
79791;BME280;69278;52.220;5.172;2023-11-21T09:34:50;101753.38;;;10.69;96.36
79791;BME280;69278;52.220;5.172;2023-11-21T09:37:17;101753.00;;;10.62;96.37
79791;BME280;69278;52.220;5.172;2023-11-21T09:39:45;101772.81;;;10.68;96.36
79791;BME280;69278;52.220;5.172;2023-11-21T09:42:23;101772.16;;;10.64;96.30
79791;BME280;69278;52.220;5.172;2023-11-21T09:45:05;101766.63;;;10.56;96.27
79791;BME280;69278;52.220;5.172;2023-11-21T09:47:35;101782.00;;;10.62;96.28
79791;BME280;69278;52.220;5.172;2023-11-21T09:50:05;101781.00;;;10.63;96.29
79791;BME280;69278;52.220;5.172;2023-11-21T09:55:16;101788.69;;;10.66;95.81
79791;BME280;69278;52.220;5.172;2023-11-21T09:57:45;101790.13;;;10.71;95.92
79791;BME280;69278;52.220;5.172;2023-11-21T10:00:12;101768.91;;;10.61;95.80
79791;BME280;69278;52.220;5.172;2023-11-21T10:02:39;101759.19;;;10.50;95.53
79791;BME280;69278;52.220;5.172;2023-11-21T10:05:07;101787.28;;;10.74;95.16
79791;BME280;69278;52.220;5.172;2023-11-21T10:07:36;101809.59;;;10.81;95.00
79791;BME280;69278;52.220;5.172;2023-11-21T10:10:05;101806.34;;;10.77;95.06
79791;BME280;69278;52.220;5.172;2023-11-21T10:12:32;101801.94;;;10.78;94.87
79791;BME280;69278;52.220;5.172;2023-11-21T10:14:59;101792.06;;;10.68;94.83
79791;BME280;69278;52.220;5.172;2023-11-21T10:17:28;101824.44;;;10.82;94.75
79791;BME280;69278;52.220;5.172;2023-11-21T10:19:58;101827.69;;;10.85;94.81
79791;BME280;69278;52.220;5.172;2023-11-21T10:22:25;101826.47;;;10.78;94.83
79791;BME280;69278;52.220;5.172;2023-11-21T10:24:52;101827.44;;;10.77;94.82
79791;BME280;69278;52.220;5.172;2023-11-21T10:27:20;101845.53;;;10.82;95.14
79791;BME280;69278;52.220;5.172;2023-11-21T10:29:46;101848.03;;;10.83;95.31
79791;BME280;69278;52.220;5.172;2023-11-21T10:32:12;101862.41;;;10.79;95.33
79791;BME280;69278;52.220;5.172;2023-11-21T10:34:39;101855.69;;;10.75;95.39
79791;BME280;69278;52.220;5.172;2023-11-21T10:37:11;101872.56;;;10.73;95.34
79791;BME280;69278;52.220;5.172;2023-11-21T10:39:38;101824.06;;;10.51;95.30
79791;BME280;69278;52.220;5.172;2023-11-21T10:42:08;101878.22;;;10.79;95.01
79791;BME280;69278;52.220;5.172;2023-11-21T10:44:35;101864.88;;;10.70;94.87
79791;BME280;69278;52.220;5.172;2023-11-21T10:47:02;101872.94;;;10.79;94.88
79791;BME280;69278;52.220;5.172;2023-11-21T10:49:29;101883.38;;;10.81;94.76
79791;BME280;69278;52.220;5.172;2023-11-21T10:51:56;101881.78;;;10.78;94.57
79791;BME280;69278;52.220;5.172;2023-11-21T10:54:24;101887.31;;;10.75;94.55
79791;BME280;69278;52.220;5.172;2023-11-21T10:57:02;101891.34;;;10.92;95.17
79791;BME280;69278;52.220;5.172;2023-11-21T10:59:31;101850.41;;;10.99;95.05
79791;BME280;69278;52.220;5.172;2023-11-21T11:02:01;101898.50;;;11.59;95.08
79791;BME280;69278;52.220;5.172;2023-11-21T11:04:30;101891.91;;;11.54;93.38
79791;BME280;69278;52.220;5.172;2023-11-21T11:07:01;101899.66;;;11.44;93.36
79791;BME280;69278;52.220;5.172;2023-11-21T11:09:32;101901.44;;;11.32;93.11
79791;BME280;69278;52.220;5.172;2023-11-21T11:12:02;101890.81;;;11.10;92.63
79791;BME280;69278;52.220;5.172;2023-11-21T11:14:29;101904.47;;;11.04;92.77
79791;BME280;69278;52.220;5.172;2023-11-21T11:16:55;101903.19;;;10.97;92.78
79791;BME280;69278;52.220;5.172;2023-11-21T11:19:23;101915.22;;;11.01;92.80
79791;BME280;69278;52.220;5.172;2023-11-21T11:22:12;101913.75;;;10.97;93.06
79791;BME280;69278;52.220;5.172;2023-11-21T11:25:02;101913.16;;;10.94;93.14
79791;BME280;69278;52.220;5.172;2023-11-21T11:27:44;101915.91;;;10.92;93.55
79791;BME280;69278;52.220;5.172;2023-11-21T11:38:15;101934.28;;;10.81;93.36
79791;BME280;69278;52.220;5.172;2023-11-21T11:40:45;101934.28;;;10.81;93.19
79791;BME280;69278;52.220;5.172;2023-11-21T11:43:12;101933.34;;;10.82;93.01
79791;BME280;69278;52.220;5.172;2023-11-21T11:45:38;101930.91;;;10.79;93.22
79791;BME280;69278;52.220;5.172;2023-11-21T11:48:11;101932.91;;;10.76;93.01
79791;BME280;69278;52.220;5.172;2023-11-21T11:51:12;101953.44;;;10.83;92.86
79791;BME280;69278;52.220;5.172;2023-11-21T11:53:48;101950.94;;;10.82;92.69
79791;BME280;69278;52.220;5.172;2023-11-21T11:56:33;101951.78;;;10.82;92.72
79791;BME280;69278;52.220;5.172;2023-11-21T11:59:04;101955.00;;;10.86;92.73
79791;BME280;69278;52.220;5.172;2023-11-21T12:01:32;101899.63;;;10.51;92.51
79791;BME280;69278;52.220;5.172;2023-11-21T12:06:43;101943.91;;;10.70;92.88
79791;BME280;69278;52.220;5.172;2023-11-21T12:09:20;101951.16;;;10.79;93.33
79791;BME280;69278;52.220;5.172;2023-11-21T12:11:51;101955.88;;;10.86;93.49
79791;BME280;69278;52.220;5.172;2023-11-21T12:14:18;101959.00;;;10.91;93.46
79791;BME280;69278;52.220;5.172;2023-11-21T12:16:44;101960.72;;;10.92;93.21
79791;BME280;69278;52.220;5.172;2023-11-21T12:19:11;101958.06;;;10.92;93.06
79791;BME280;69278;52.220;5.172;2023-11-21T12:21:39;101951.81;;;10.93;93.05
79791;BME280;69278;52.220;5.172;2023-11-21T12:24:07;101966.91;;;10.91;93.01
79791;BME280;69278;52.220;5.172;2023-11-21T12:26:35;101971.25;;;10.92;93.21
79791;BME280;69278;52.220;5.172;2023-11-21T12:29:02;101964.22;;;10.80;92.94
79791;BME280;69278;52.220;5.172;2023-11-21T12:31:30;101974.19;;;10.88;92.97
79791;BME280;69278;52.220;5.172;2023-11-21T12:33:57;101961.91;;;10.76;93.11
79791;BME280;69278;52.220;5.172;2023-11-21T12:36:24;101986.53;;;10.87;93.33
79791;BME280;69278;52.220;5.172;2023-11-21T12:38:51;101982.34;;;10.85;93.49
79791;BME280;69278;52.220;5.172;2023-11-21T12:41:18;101971.50;;;10.77;93.53
79791;BME280;69278;52.220;5.172;2023-11-21T12:43:44;101993.47;;;10.88;93.57
79791;BME280;69278;52.220;5.172;2023-11-21T12:46:11;101991.50;;;10.79;93.60
79791;BME280;69278;52.220;5.172;2023-11-21T12:48:38;102004.47;;;10.82;93.52
79791;BME280;69278;52.220;5.172;2023-11-21T12:51:12;102005.53;;;10.80;93.53
79791;BME280;69278;52.220;5.172;2023-11-21T12:53:41;102004.81;;;10.78;93.69
79791;BME280;69278;52.220;5.172;2023-11-21T12:56:11;102015.66;;;10.73;93.65
79791;BME280;69278;52.220;5.172;2023-11-21T12:58:39;102013.13;;;10.72;93.60
79791;BME280;69278;52.220;5.172;2023-11-21T13:01:07;102015.88;;;10.70;93.74
79791;BME280;69278;52.220;5.172;2023-11-21T13:03:38;102025.47;;;10.71;93.70
79791;BME280;69278;52.220;5.172;2023-11-21T13:06:07;101997.34;;;10.59;93.81
79791;BME280;69278;52.220;5.172;2023-11-21T13:08:34;102034.09;;;10.73;94.19
79791;BME280;69278;52.220;5.172;2023-11-21T13:11:01;102030.00;;;10.69;93.78
79791;BME280;69278;52.220;5.172;2023-11-21T13:13:30;102035.28;;;10.69;93.74